Terminal Aerodrome Forecast
Issued by NWS

Home | Current Version | Previous Version | Text Only | Print | Product List | Glossary On
Versions: 1 2 3 4 5 6 7 8 9 10 11 12 13 14 15 16 17 18 19
000
FTUS43 KMKX 261722
TAFUES
TAF
KUES 261722Z 2618/2718 23008KT P6SM SCT030 BKN250
     FM262100 23008KT P6SM VCTS SCT030CB OVC150
     FM270000 23005KT P6SM SHRA VCTS SCT025CB OVC080
     FM270400 00000KT P6SM VCTS SCT035CB OVC100
     FM270900 VRB03KT 3SM BR VCTS BKN050CB
     FM271200 04005KT 3SM BR BKN040
     FM271400 04007KT P6SM BKN025
     FM271700 04009KT P6SM BKN040=

USA.gov is the U.S. government's official web portal to all federal, state and local government web resources and services.